»·PEaware :: SWA2545 KSAN-KLAS

SWA2545 :: KSAN-KLAS

FLIGHT INFORMATION

Flight Status: Arrived
Operator:
Southwest Airlines
More flights by this operator :: More flights under this callsign
Pilot: Cody B. (17747)
Aircraft: BOEING 737-800
(B738)
More flights by this aircraft type
Origin: KSAN San Diego Intl-Lindbergh
United States
Destination: KLAS McCarran Intl
United States
More flights between these airports :: More routes between these airports
Route: +PADRZ2 CHKNN SEBBY YELAH MISEN KEPEC6
File this flight plan on PilotEdge
Remarks:
Altitude:
(Current/Filed)
29,000ft
Speed:
(Current/Filed)
449kts
Departed: 25-Jun-18 03:17 PM
Arrived: 25-Jun-18 04:16 PM
Distance/Time
Traveled:
225nm/0:59
Distance/Time
To Go:
Arrived

Flight Plot

Page will automatically refresh every two minutes.

Flight plan parsing failed; only flown route is shown


Map Options




Map Legend


Flown Route
Filed Route
Departure Airport
Arrival Airport
Navaid (VOR, NDB)
Fix

Horizontal Profiles

Position Reports

Time Latitude Longitude Heading Altitude Ground
Speed
25-Jun-18 14:44 32.731854 -117.195856 247 20ft 0kts
25-Jun-18 14:45 32.731854 -117.195856 247 20ft 0kts
25-Jun-18 14:46 32.731854 -117.195856 247 20ft 0kts
25-Jun-18 14:47 32.731854 -117.195856 247 20ft 0kts
25-Jun-18 14:48 32.731854 -117.195856 247 20ft 0kts
25-Jun-18 14:49 32.731854 -117.195856 247 20ft 0kts
25-Jun-18 14:50 32.731854 -117.195856 247 20ft 0kts
25-Jun-18 14:51 32.731854 -117.195856 247 20ft 0kts
25-Jun-18 14:52 32.731854 -117.195856 247 20ft 0kts
25-Jun-18 14:53 32.731854 -117.195856 247 20ft 0kts
25-Jun-18 14:54 32.731854 -117.195856 247 20ft 0kts
25-Jun-18 14:55 32.731854 -117.195856 247 20ft 0kts
25-Jun-18 14:56 32.731854 -117.195856 247 20ft 0kts
25-Jun-18 14:57 32.731854 -117.195856 247 20ft 0kts
25-Jun-18 14:58 32.731854 -117.195856 247 20ft 0kts
25-Jun-18 14:59 32.731854 -117.195856 247 20ft 0kts
25-Jun-18 15:00 32.731854 -117.195856 247 20ft 0kts
25-Jun-18 15:01 32.731854 -117.195856 247 20ft 0kts
25-Jun-18 15:02 32.731854 -117.195856 247 20ft 0kts
25-Jun-18 15:03 32.731910 -117.195699 247 20ft 2kts
25-Jun-18 15:04 32.731967 -117.195047 326 21ft 2kts
25-Jun-18 15:05 32.731731 -117.195033 16 21ft 0kts
25-Jun-18 15:06 32.731731 -117.195033 16 21ft 0kts
25-Jun-18 15:07 32.731737 -117.195031 16 21ft 0kts
25-Jun-18 15:08 32.732223 -117.194834 24 21ft 3kts
25-Jun-18 15:09 32.732754 -117.194509 28 21ft 0kts
25-Jun-18 15:10 32.733270 -117.192757 105 21ft 8kts
25-Jun-18 15:11 32.732421 -117.189197 106 19ft 16kts
25-Jun-18 15:12 32.731165 -117.184035 105 17ft 14kts
25-Jun-18 15:13 32.730102 -117.179654 105 18ft 11kts
25-Jun-18 15:14 32.729532 -117.176676 74 23ft 0kts
25-Jun-18 15:15 32.729532 -117.176676 74 23ft 0kts
25-Jun-18 15:16 32.729758 -117.175988 49 24ft 4kts
25-Jun-18 15:17 32.730851 -117.178634 286 22ft 62kts
25-Jun-18 15:18 32.741618 -117.224513 286 1242ft 170kts
25-Jun-18 15:19 32.772305 -117.276897 307 2869ft 218kts
25-Jun-18 15:20 32.813698 -117.340400 306 4859ft 265kts
25-Jun-18 15:21 32.859506 -117.411308 305 7448ft 279kts
25-Jun-18 15:22 32.907690 -117.486162 305 9843ft 293kts
25-Jun-18 15:23 32.960157 -117.567915 306 11626ft 325kts
25-Jun-18 15:24 33.015514 -117.654362 305 13831ft 335kts
25-Jun-18 15:25 33.073059 -117.740745 316 14954ft 346kts
25-Jun-18 15:26 33.144438 -117.813485 318 16951ft 353kts
25-Jun-18 15:27 33.220337 -117.889405 320 18808ft 361kts
25-Jun-18 15:28 33.298724 -117.965555 320 20528ft 370kts
25-Jun-18 15:29 33.379064 -118.043905 320 22101ft 378kts
25-Jun-18 15:30 33.461104 -118.124190 320 23591ft 385kts
25-Jun-18 15:31 33.544456 -118.206018 320 24954ft 391kts
25-Jun-18 15:32 33.637617 -118.272712 335 26187ft 398kts
25-Jun-18 15:33 33.742149 -118.306054 18 27205ft 406kts
25-Jun-18 15:34 33.825472 -118.219539 52 28179ft 416kts
25-Jun-18 15:35 33.893670 -118.106186 53 29005ft 425kts
25-Jun-18 15:36 33.964374 -117.987535 53 29009ft 449kts
25-Jun-18 15:37 34.038340 -117.863217 53 29013ft 464kts
25-Jun-18 15:38 34.113319 -117.740561 49 29028ft 463kts
25-Jun-18 15:39 34.195007 -117.621164 49 29002ft 462kts
25-Jun-18 15:40 34.276791 -117.501226 49 29012ft 462kts
25-Jun-18 15:41 34.358342 -117.380699 49 28980ft 464kts
25-Jun-18 15:42 34.439368 -117.260567 49 29008ft 464kts
25-Jun-18 15:43 34.521168 -117.139170 49 29008ft 467kts
25-Jun-18 15:44 34.603156 -117.017700 49 28978ft 467kts
25-Jun-18 15:45 34.685396 -116.895914 49 28908ft 467kts
25-Jun-18 15:46 34.767662 -116.774222 49 28907ft 466kts
25-Jun-18 15:47 34.850301 -116.652671 45 28904ft 469kts
25-Jun-18 15:48 34.950802 -116.551544 37 28125ft 469kts
25-Jun-18 15:49 35.047123 -116.457993 38 25452ft 423kts
25-Jun-18 15:50 35.131691 -116.369822 45 23981ft 401kts
25-Jun-18 15:51 35.209324 -116.271933 46 23962ft 405kts
25-Jun-18 15:52 35.287594 -116.173021 46 23965ft 404kts
25-Jun-18 15:53 35.366051 -116.074024 46 23307ft 407kts
25-Jun-18 15:54 35.441660 -115.978328 46 20702ft 383kts
25-Jun-18 15:55 35.514311 -115.886126 46 18096ft 368kts
25-Jun-18 15:56 35.583817 -115.797709 46 15675ft 357kts
25-Jun-18 15:57 35.651803 -115.711027 46 13671ft 349kts
25-Jun-18 15:58 35.718029 -115.626376 46 13046ft 343kts
25-Jun-18 15:59 35.794670 -115.576961 5 13045ft 314kts
25-Jun-18 16:00 35.881661 -115.570354 3 13046ft 314kts
25-Jun-18 16:01 35.963719 -115.544736 46 13043ft 312kts
25-Jun-18 16:02 36.004065 -115.453766 68 12983ft 286kts
25-Jun-18 16:03 36.028239 -115.361513 91 13026ft 282kts
25-Jun-18 16:04 36.021958 -115.259060 96 10251ft 322kts
25-Jun-18 16:05 36.014552 -115.152640 96 8614ft 292kts
25-Jun-18 16:06 36.008412 -115.059331 96 7805ft 257kts
25-Jun-18 16:07 36.003330 -114.971786 96 6358ft 255kts
25-Jun-18 16:08 36.002359 -114.885128 94 5019ft 249kts
25-Jun-18 16:09 36.018182 -114.815222 24 4790ft 207kts
25-Jun-18 16:10 36.068139 -114.835966 288 4804ft 211kts
25-Jun-18 16:11 36.073578 -114.905718 267 4982ft 200kts
25-Jun-18 16:12 36.073319 -114.971887 267 4560ft 187kts
25-Jun-18 16:13 36.074425 -115.029751 265 3624ft 166kts
25-Jun-18 16:14 36.073773 -115.085749 266 2798ft 166kts
25-Jun-18 16:15 36.073633 -115.137369 269 2079ft 98kts
25-Jun-18 16:16 36.073794 -115.147968 284 2111ft 4kts
25-Jun-18 16:17 36.074263 -115.149559 295 2117ft 2kts
25-Jun-18 16:18 36.074599 -115.150380 300 2119ft 2kts
25-Jun-18 16:19 36.075461 -115.151484 336 2122ft 9kts
25-Jun-18 16:20 36.077765 -115.150941 53 2115ft 6kts
25-Jun-18 16:21 36.077952 -115.148604 70 2106ft 5kts
25-Jun-18 16:22 36.078594 -115.147517 54 2102ft 3kts
25-Jun-18 16:23 36.079436 -115.147627 335 2100ft 3kts
25-Jun-18 16:24 36.079792 -115.147403 60 2098ft 1kts
25-Jun-18 16:25 36.079925 -115.147117 57 2096ft 0kts
25-Jun-18 16:26 36.079925 -115.147118 57 2096ft 0kts
25-Jun-18 16:27 36.079925 -115.147118 57 2096ft 0kts

Navigation Log

Ident Type
Flight plan parsing failed, navigation log unavailable